sensor_id;sensor_type;location;lat;lon;timestamp;temperature;humidity
67192;HTU21D;54120;53.504;49.426;2024-03-02T00:00:30;-5.00;84.41
67192;HTU21D;54120;53.504;49.426;2024-03-02T00:02:56;-5.02;84.61
67192;HTU21D;54120;53.504;49.426;2024-03-02T00:05:22;-5.03;83.71
67192;HTU21D;54120;53.504;49.426;2024-03-02T00:07:56;-5.05;84.23
67192;HTU21D;54120;53.504;49.426;2024-03-02T00:10:26;-5.08;84.29
67192;HTU21D;54120;53.504;49.426;2024-03-02T00:12:57;-5.22;85.55
67192;HTU21D;54120;53.504;49.426;2024-03-02T00:17:56;-5.22;84.53
67192;HTU21D;54120;53.504;49.426;2024-03-02T00:20:24;-5.28;84.43
67192;HTU21D;54120;53.504;49.426;2024-03-02T00:23:03;-5.40;84.58
67192;HTU21D;54120;53.504;49.426;2024-03-02T00:25:41;-5.39;84.63
67192;HTU21D;54120;53.504;49.426;2024-03-02T00:28:30;-5.52;85.80
67192;HTU21D;54120;53.504;49.426;2024-03-02T00:31:09;-5.53;86.33
67192;HTU21D;54120;53.504;49.426;2024-03-02T00:33:43;-5.52;85.42
67192;HTU21D;54120;53.504;49.426;2024-03-02T00:36:11;-5.45;86.12
67192;HTU21D;54120;53.504;49.426;2024-03-02T00:38:51;-5.43;83.97
67192;HTU21D;54120;53.504;49.426;2024-03-02T00:41:36;-5.46;84.04
67192;HTU21D;54120;53.504;49.426;2024-03-02T00:44:15;-5.47;85.30
67192;HTU21D;54120;53.504;49.426;2024-03-02T00:46:42;-5.59;85.51
67192;HTU21D;54120;53.504;49.426;2024-03-02T00:49:18;-5.74;86.60
67192;HTU21D;54120;53.504;49.426;2024-03-02T00:51:48;-5.73;85.92
67192;HTU21D;54120;53.504;49.426;2024-03-02T00:54:15;-5.74;85.69
67192;HTU21D;54120;53.504;49.426;2024-03-02T00:56:45;-5.76;84.84
67192;HTU21D;54120;53.504;49.426;2024-03-02T00:59:12;-5.82;86.74
67192;HTU21D;54120;53.504;49.426;2024-03-02T01:01:38;-5.77;85.94
67192;HTU21D;54120;53.504;49.426;2024-03-02T01:04:05;-5.82;85.84
67192;HTU21D;54120;53.504;49.426;2024-03-02T01:06:31;-5.87;84.93
67192;HTU21D;54120;53.504;49.426;2024-03-02T01:08:57;-5.89;85.78
67192;HTU21D;54120;53.504;49.426;2024-03-02T01:11:24;-6.05;84.04
67192;HTU21D;54120;53.504;49.426;2024-03-02T01:13:50;-6.17;85.05
67192;HTU21D;54120;53.504;49.426;2024-03-02T01:16:17;-6.22;86.81
67192;HTU21D;54120;53.504;49.426;2024-03-02T01:18:44;-6.08;87.15
67192;HTU21D;54120;53.504;49.426;2024-03-02T01:21:10;-6.12;85.32
67192;HTU21D;54120;53.504;49.426;2024-03-02T01:23:36;-6.18;85.46
67192;HTU21D;54120;53.504;49.426;2024-03-02T01:26:03;-6.20;87.28
67192;HTU21D;54120;53.504;49.426;2024-03-02T01:28:29;-6.14;87.44
67192;HTU21D;54120;53.504;49.426;2024-03-02T01:30:56;-6.12;87.12
67192;HTU21D;54120;53.504;49.426;2024-03-02T01:33:22;-6.06;85.90
67192;HTU21D;54120;53.504;49.426;2024-03-02T01:35:49;-6.11;86.49
67192;HTU21D;54120;53.504;49.426;2024-03-02T01:38:15;-6.05;86.24
67192;HTU21D;54120;53.504;49.426;2024-03-02T01:40:42;-6.06;86.81
67192;HTU21D;54120;53.504;49.426;2024-03-02T01:43:10;-5.98;87.00
67192;HTU21D;54120;53.504;49.426;2024-03-02T01:45:37;-6.06;87.91
67192;HTU21D;54120;53.504;49.426;2024-03-02T01:48:07;-6.07;87.52
67192;HTU21D;54120;53.504;49.426;2024-03-02T01:50:34;-6.13;88.22
67192;HTU21D;54120;53.504;49.426;2024-03-02T01:53:01;-6.14;87.83
67192;HTU21D;54120;53.504;49.426;2024-03-02T01:55:30;-6.11;87.31
67192;HTU21D;54120;53.504;49.426;2024-03-02T01:57:57;-6.15;86.02
67192;HTU21D;54120;53.504;49.426;2024-03-02T02:00:24;-6.18;87.20
67192;HTU21D;54120;53.504;49.426;2024-03-02T02:02:52;-6.21;87.62
67192;HTU21D;54120;53.504;49.426;2024-03-02T02:05:19;-6.18;88.41
67192;HTU21D;54120;53.504;49.426;2024-03-02T02:07:46;-6.22;88.78
67192;HTU21D;54120;53.504;49.426;2024-03-02T02:10:12;-6.20;89.74
67192;HTU21D;54120;53.504;49.426;2024-03-02T02:12:39;-6.16;88.80
67192;HTU21D;54120;53.504;49.426;2024-03-02T02:15:28;-6.23;86.89
67192;HTU21D;54120;53.504;49.426;2024-03-02T02:17:56;-6.37;88.83
67192;HTU21D;54120;53.504;49.426;2024-03-02T02:20:23;-6.47;89.09
67192;HTU21D;54120;53.504;49.426;2024-03-02T02:23:08;-6.50;90.30
67192;HTU21D;54120;53.504;49.426;2024-03-02T02:25:35;-6.62;87.39
67192;HTU21D;54120;53.504;49.426;2024-03-02T02:28:02;-6.76;86.06
67192;HTU21D;54120;53.504;49.426;2024-03-02T02:30:30;-6.75;89.22
67192;HTU21D;54120;53.504;49.426;2024-03-02T02:32:57;-6.88;87.70
67192;HTU21D;54120;53.504;49.426;2024-03-02T02:35:24;-6.96;88.14
67192;HTU21D;54120;53.504;49.426;2024-03-02T02:37:50;-6.96;89.01
67192;HTU21D;54120;53.504;49.426;2024-03-02T02:40:18;-6.87;86.50
67192;HTU21D;54120;53.504;49.426;2024-03-02T02:42:47;-7.11;85.29
67192;HTU21D;54120;53.504;49.426;2024-03-02T02:45:14;-7.36;86.52
67192;HTU21D;54120;53.504;49.426;2024-03-02T02:47:44;-7.41;87.37
67192;HTU21D;54120;53.504;49.426;2024-03-02T02:50:11;-7.21;86.66
67192;HTU21D;54120;53.504;49.426;2024-03-02T02:52:39;-7.02;85.94
67192;HTU21D;54120;53.504;49.426;2024-03-02T02:55:10;-6.91;85.90
67192;HTU21D;54120;53.504;49.426;2024-03-02T02:57:40;-6.94;86.37
67192;HTU21D;54120;53.504;49.426;2024-03-02T03:00:10;-6.95;87.94
67192;HTU21D;54120;53.504;49.426;2024-03-02T03:02:43;-7.08;86.48
67192;HTU21D;54120;53.504;49.426;2024-03-02T03:05:10;-7.31;87.20
67192;HTU21D;54120;53.504;49.426;2024-03-02T03:07:38;-7.45;87.87
67192;HTU21D;54120;53.504;49.426;2024-03-02T03:10:06;-7.62;88.48
67192;HTU21D;54120;53.504;49.426;2024-03-02T03:12:34;-7.71;87.80
67192;HTU21D;54120;53.504;49.426;2024-03-02T03:15:00;-7.69;88.21
67192;HTU21D;54120;53.504;49.426;2024-03-02T03:17:27;-7.36;87.76
67192;HTU21D;54120;53.504;49.426;2024-03-02T03:19:53;-7.13;86.19
67192;HTU21D;54120;53.504;49.426;2024-03-02T03:22:20;-7.27;86.55
67192;HTU21D;54120;53.504;49.426;2024-03-02T03:24:47;-7.38;88.26
67192;HTU21D;54120;53.504;49.426;2024-03-02T03:27:13;-7.44;89.11
67192;HTU21D;54120;53.504;49.426;2024-03-02T03:29:40;-7.42;89.48
67192;HTU21D;54120;53.504;49.426;2024-03-02T03:32:07;-7.47;88.15
67192;HTU21D;54120;53.504;49.426;2024-03-02T03:34:34;-7.37;89.70
67192;HTU21D;54120;53.504;49.426;2024-03-02T03:37:01;-7.19;86.95
67192;HTU21D;54120;53.504;49.426;2024-03-02T03:39:28;-6.89;86.16
67192;HTU21D;54120;53.504;49.426;2024-03-02T03:41:57;-6.59;82.90
67192;HTU21D;54120;53.504;49.426;2024-03-02T03:44:23;-6.37;81.31
67192;HTU21D;54120;53.504;49.426;2024-03-02T03:46:50;-6.38;80.70
67192;HTU21D;54120;53.504;49.426;2024-03-02T03:49:16;-6.30;81.77
67192;HTU21D;54120;53.504;49.426;2024-03-02T03:51:43;-6.49;81.27
67192;HTU21D;54120;53.504;49.426;2024-03-02T03:54:09;-6.64;81.78
67192;HTU21D;54120;53.504;49.426;2024-03-02T03:56:37;-6.46;80.72
67192;HTU21D;54120;53.504;49.426;2024-03-02T03:59:04;-6.45;79.10
67192;HTU21D;54120;53.504;49.426;2024-03-02T04:01:31;-6.59;79.46
67192;HTU21D;54120;53.504;49.426;2024-03-02T04:04:00;-6.47;79.72
67192;HTU21D;54120;53.504;49.426;2024-03-02T04:06:28;-6.32;77.82
67192;HTU21D;54120;53.504;49.426;2024-03-02T04:08:54;-6.15;78.79
67192;HTU21D;54120;53.504;49.426;2024-03-02T04:11:20;-5.67;81.07
67192;HTU21D;54120;53.504;49.426;2024-03-02T04:13:47;-5.34;78.30
67192;HTU21D;54120;53.504;49.426;2024-03-02T04:16:13;-4.84;75.65
67192;HTU21D;54120;53.504;49.426;2024-03-02T04:18:40;-4.55;74.86
67192;HTU21D;54120;53.504;49.426;2024-03-02T04:21:06;-4.48;74.96
67192;HTU21D;54120;53.504;49.426;2024-03-02T04:23:32;-4.15;73.02
67192;HTU21D;54120;53.504;49.426;2024-03-02T04:25:59;-3.78;71.51
67192;HTU21D;54120;53.504;49.426;2024-03-02T04:28:25;-3.24;70.64
67192;HTU21D;54120;53.504;49.426;2024-03-02T04:30:52;-3.12;68.96
67192;HTU21D;54120;53.504;49.426;2024-03-02T04:33:18;-2.97;67.93
67192;HTU21D;54120;53.504;49.426;2024-03-02T04:35:44;-2.79;67.94
67192;HTU21D;54120;53.504;49.426;2024-03-02T04:38:11;-2.74;67.69
67192;HTU21D;54120;53.504;49.426;2024-03-02T04:40:37;-2.36;67.34
67192;HTU21D;54120;53.504;49.426;2024-03-02T04:43:03;-1.55;63.49
67192;HTU21D;54120;53.504;49.426;2024-03-02T04:45:30;-0.58;59.79
67192;HTU21D;54120;53.504;49.426;2024-03-02T04:47:56;0.12;57.19
67192;HTU21D;54120;53.504;49.426;2024-03-02T04:50:22;0.37;56.60
67192;HTU21D;54120;53.504;49.426;2024-03-02T04:52:49;0.69;55.59
67192;HTU21D;54120;53.504;49.426;2024-03-02T04:55:15;0.84;55.43
67192;HTU21D;54120;53.504;49.426;2024-03-02T04:57:53;1.04;55.16
67192;HTU21D;54120;53.504;49.426;2024-03-02T05:00:22;1.27;55.50
67192;HTU21D;54120;53.504;49.426;2024-03-02T05:02:49;1.40;54.81
67192;HTU21D;54120;53.504;49.426;2024-03-02T05:05:15;2.06;52.90
67192;HTU21D;54120;53.504;49.426;2024-03-02T05:07:42;2.80;50.13
67192;HTU21D;54120;53.504;49.426;2024-03-02T05:10:10;3.04;49.51
67192;HTU21D;54120;53.504;49.426;2024-03-02T05:12:37;3.06;49.31
67192;HTU21D;54120;53.504;49.426;2024-03-02T05:15:22;3.13;49.33
67192;HTU21D;54120;53.504;49.426;2024-03-02T05:17:50;3.25;49.90
67192;HTU21D;54120;53.504;49.426;2024-03-02T05:20:17;3.52;49.02
67192;HTU21D;54120;53.504;49.426;2024-03-02T05:22:43;3.47;49.80
67192;HTU21D;54120;53.504;49.426;2024-03-02T05:25:10;4.05;48.73
67192;HTU21D;54120;53.504;49.426;2024-03-02T05:27:36;4.79;46.31
67192;HTU21D;54120;53.504;49.426;2024-03-02T05:30:03;5.49;45.31
67192;HTU21D;54120;53.504;49.426;2024-03-02T05:32:33;6.14;43.50
67192;HTU21D;54120;53.504;49.426;2024-03-02T05:34:59;6.66;42.74
67192;HTU21D;54120;53.504;49.426;2024-03-02T05:37:25;6.56;42.00
67192;HTU21D;54120;53.504;49.426;2024-03-02T05:39:52;6.43;42.78
67192;HTU21D;54120;53.504;49.426;2024-03-02T05:42:19;6.49;42.75
67192;HTU21D;54120;53.504;49.426;2024-03-02T05:44:45;6.51;42.77
67192;HTU21D;54120;53.504;49.426;2024-03-02T05:47:11;6.72;42.80
67192;HTU21D;54120;53.504;49.426;2024-03-02T05:49:38;7.38;41.72
67192;HTU21D;54120;53.504;49.426;2024-03-02T05:52:05;7.59;40.35
67192;HTU21D;54120;53.504;49.426;2024-03-02T05:54:31;7.82;40.19
67192;HTU21D;54120;53.504;49.426;2024-03-02T05:56:58;8.16;39.32
67192;HTU21D;54120;53.504;49.426;2024-03-02T05:59:42;8.56;38.46
67192;HTU21D;54120;53.504;49.426;2024-03-02T06:02:09;8.85;37.76
67192;HTU21D;54120;53.504;49.426;2024-03-02T06:04:36;9.09;37.20
67192;HTU21D;54120;53.504;49.426;2024-03-02T06:07:02;9.05;37.14
67192;HTU21D;54120;53.504;49.426;2024-03-02T06:09:29;9.19;37.45
67192;HTU21D;54120;53.504;49.426;2024-03-02T06:11:55;10.04;35.73
67192;HTU21D;54120;53.504;49.426;2024-03-02T06:14:21;10.72;33.45
67192;HTU21D;54120;53.504;49.426;2024-03-02T06:16:48;10.62;33.57
67192;HTU21D;54120;53.504;49.426;2024-03-02T06:19:14;10.80;32.99
67192;HTU21D;54120;53.504;49.426;2024-03-02T06:21:41;11.13;33.63
67192;HTU21D;54120;53.504;49.426;2024-03-02T06:24:07;11.99;31.32
67192;HTU21D;54120;53.504;49.426;2024-03-02T06:26:33;12.40;30.80
67192;HTU21D;54120;53.504;49.426;2024-03-02T06:29:00;12.94;30.08
67192;HTU21D;54120;53.504;49.426;2024-03-02T06:31:28;12.86;29.60
67192;HTU21D;54120;53.504;49.426;2024-03-02T06:33:54;12.96;29.26
67192;HTU21D;54120;53.504;49.426;2024-03-02T06:36:23;12.71;29.38
67192;HTU21D;54120;53.504;49.426;2024-03-02T06:38:49;12.42;30.32
67192;HTU21D;54120;53.504;49.426;2024-03-02T06:41:16;11.36;32.31
67192;HTU21D;54120;53.504;49.426;2024-03-02T06:43:42;10.30;35.02
67192;HTU21D;54120;53.504;49.426;2024-03-02T06:46:08;9.68;36.72
67192;HTU21D;54120;53.504;49.426;2024-03-02T06:48:35;10.23;35.24
67192;HTU21D;54120;53.504;49.426;2024-03-02T06:51:01;10.80;35.79
67192;HTU21D;54120;53.504;49.426;2024-03-02T06:53:28;10.88;34.69
67192;HTU21D;54120;53.504;49.426;2024-03-02T06:55:54;10.71;34.29
67192;HTU21D;54120;53.504;49.426;2024-03-02T06:58:20;10.78;33.98
67192;HTU21D;54120;53.504;49.426;2024-03-02T07:00:48;10.36;35.20
67192;HTU21D;54120;53.504;49.426;2024-03-02T07:03:14;10.45;35.10
67192;HTU21D;54120;53.504;49.426;2024-03-02T07:05:41;10.37;35.20
67192;HTU21D;54120;53.504;49.426;2024-03-02T07:08:07;10.38;35.54
67192;HTU21D;54120;53.504;49.426;2024-03-02T07:10:34;10.46;35.21
67192;HTU21D;54120;53.504;49.426;2024-03-02T07:13:01;10.62;33.92
67192;HTU21D;54120;53.504;49.426;2024-03-02T07:15:30;10.68;35.05
67192;HTU21D;54120;53.504;49.426;2024-03-02T07:18:16;10.75;34.91
67192;HTU21D;54120;53.504;49.426;2024-03-02T07:20:42;10.80;34.99
67192;HTU21D;54120;53.504;49.426;2024-03-02T07:23:08;10.97;34.76
67192;HTU21D;54120;53.504;49.426;2024-03-02T07:25:35;11.30;34.03
67192;HTU21D;54120;53.504;49.426;2024-03-02T07:28:02;12.26;32.53
67192;HTU21D;54120;53.504;49.426;2024-03-02T07:30:30;13.19;30.42
67192;HTU21D;54120;53.504;49.426;2024-03-02T07:32:56;13.91;28.78
67192;HTU21D;54120;53.504;49.426;2024-03-02T07:35:23;14.38;28.16
67192;HTU21D;54120;53.504;49.426;2024-03-02T07:37:53;14.47;27.75
67192;HTU21D;54120;53.504;49.426;2024-03-02T07:40:20;14.59;27.32
67192;HTU21D;54120;53.504;49.426;2024-03-02T07:42:47;15.24;26.25
67192;HTU21D;54120;53.504;49.426;2024-03-02T07:45:13;14.49;26.91
67192;HTU21D;54120;53.504;49.426;2024-03-02T07:47:41;11.98;32.44
67192;HTU21D;54120;53.504;49.426;2024-03-02T07:50:07;10.04;36.84
67192;HTU21D;54120;53.504;49.426;2024-03-02T07:52:33;8.71;39.63
67192;HTU21D;54120;53.504;49.426;2024-03-02T07:55:00;7.59;43.32
67192;HTU21D;54120;53.504;49.426;2024-03-02T07:57:27;6.74;45.49
67192;HTU21D;54120;53.504;49.426;2024-03-02T07:59:53;6.11;46.76
67192;HTU21D;54120;53.504;49.426;2024-03-02T08:02:20;5.55;49.50
67192;HTU21D;54120;53.504;49.426;2024-03-02T08:04:47;5.64;48.08
67192;HTU21D;54120;53.504;49.426;2024-03-02T08:07:13;5.60;48.95
67192;HTU21D;54120;53.504;49.426;2024-03-02T08:09:40;5.63;49.35
67192;HTU21D;54120;53.504;49.426;2024-03-02T08:12:08;5.57;48.76
67192;HTU21D;54120;53.504;49.426;2024-03-02T08:14:34;5.43;49.07
67192;HTU21D;54120;53.504;49.426;2024-03-02T08:17:01;5.65;48.28
67192;HTU21D;54120;53.504;49.426;2024-03-02T08:19:31;5.78;48.55
67192;HTU21D;54120;53.504;49.426;2024-03-02T08:21:57;5.52;48.68
67192;HTU21D;54120;53.504;49.426;2024-03-02T08:24:25;5.59;49.11
67192;HTU21D;54120;53.504;49.426;2024-03-02T08:26:52;5.68;49.66
67192;HTU21D;54120;53.504;49.426;2024-03-02T08:29:20;5.68;49.87
67192;HTU21D;54120;53.504;49.426;2024-03-02T08:31:46;5.79;49.76
67192;HTU21D;54120;53.504;49.426;2024-03-02T08:34:13;6.04;49.18
67192;HTU21D;54120;53.504;49.426;2024-03-02T08:36:39;6.26;47.50
67192;HTU21D;54120;53.504;49.426;2024-03-02T08:39:08;6.25;47.68
67192;HTU21D;54120;53.504;49.426;2024-03-02T08:41:42;6.11;48.26
67192;HTU21D;54120;53.504;49.426;2024-03-02T08:44:09;6.17;47.81
67192;HTU21D;54120;53.504;49.426;2024-03-02T08:46:37;5.86;48.01
67192;HTU21D;54120;53.504;49.426;2024-03-02T08:49:04;5.80;48.54
67192;HTU21D;54120;53.504;49.426;2024-03-02T08:51:31;5.84;49.36
67192;HTU21D;54120;53.504;49.426;2024-03-02T08:53:59;5.78;49.37
67192;HTU21D;54120;53.504;49.426;2024-03-02T08:56:25;5.71;49.89
67192;HTU21D;54120;53.504;49.426;2024-03-02T08:58:52;5.71;48.63
67192;HTU21D;54120;53.504;49.426;2024-03-02T09:01:19;5.64;49.50
67192;HTU21D;54120;53.504;49.426;2024-03-02T09:03:45;5.83;48.90
67192;HTU21D;54120;53.504;49.426;2024-03-02T09:06:13;5.46;50.65
67192;HTU21D;54120;53.504;49.426;2024-03-02T09:08:40;5.55;50.28
67192;HTU21D;54120;53.504;49.426;2024-03-02T09:11:07;5.61;50.80
67192;HTU21D;54120;53.504;49.426;2024-03-02T09:13:33;5.66;49.02
67192;HTU21D;54120;53.504;49.426;2024-03-02T09:16:00;5.59;49.04
67192;HTU21D;54120;53.504;49.426;2024-03-02T09:18:27;5.76;49.17
67192;HTU21D;54120;53.504;49.426;2024-03-02T09:20:53;5.99;48.61
67192;HTU21D;54120;53.504;49.426;2024-03-02T09:23:20;6.07;48.67
67192;HTU21D;54120;53.504;49.426;2024-03-02T09:25:47;6.13;48.54
67192;HTU21D;54120;53.504;49.426;2024-03-02T09:28:15;6.02;47.44
67192;HTU21D;54120;53.504;49.426;2024-03-02T09:30:42;5.80;49.26
67192;HTU21D;54120;53.504;49.426;2024-03-02T09:33:08;5.64;49.43
67192;HTU21D;54120;53.504;49.426;2024-03-02T09:35:34;5.59;49.52
67192;HTU21D;54120;53.504;49.426;2024-03-02T09:38:01;5.67;49.37
67192;HTU21D;54120;53.504;49.426;2024-03-02T09:40:27;5.61;49.28
67192;HTU21D;54120;53.504;49.426;2024-03-02T09:42:54;5.50;49.91
67192;HTU21D;54120;53.504;49.426;2024-03-02T09:45:31;5.50;50.55
67192;HTU21D;54120;53.504;49.426;2024-03-02T09:47:57;5.50;50.69
67192;HTU21D;54120;53.504;49.426;2024-03-02T09:50:23;5.47;50.21
67192;HTU21D;54120;53.504;49.426;2024-03-02T09:52:50;5.49;50.21
67192;HTU21D;54120;53.504;49.426;2024-03-02T09:55:17;5.52;49.92
67192;HTU21D;54120;53.504;49.426;2024-03-02T09:57:47;5.55;49.34
67192;HTU21D;54120;53.504;49.426;2024-03-02T10:00:17;5.24;50.95
67192;HTU21D;54120;53.504;49.426;2024-03-02T10:02:45;5.33;50.83
67192;HTU21D;54120;53.504;49.426;2024-03-02T10:05:24;5.21;50.96
67192;HTU21D;54120;53.504;49.426;2024-03-02T10:08:01;5.30;50.40
67192;HTU21D;54120;53.504;49.426;2024-03-02T10:10:41;5.41;49.58
67192;HTU21D;54120;53.504;49.426;2024-03-02T10:13:12;5.34;49.68
67192;HTU21D;54120;53.504;49.426;2024-03-02T10:15:40;5.47;50.08
67192;HTU21D;54120;53.504;49.426;2024-03-02T10:18:10;5.38;49.55
67192;HTU21D;54120;53.504;49.426;2024-03-02T10:20:42;5.17;49.83
67192;HTU21D;54120;53.504;49.426;2024-03-02T10:23:15;5.26;50.85
67192;HTU21D;54120;53.504;49.426;2024-03-02T10:25:43;5.15;48.98
67192;HTU21D;54120;53.504;49.426;2024-03-02T10:28:09;5.05;49.58
67192;HTU21D;54120;53.504;49.426;2024-03-02T10:30:36;5.01;50.47
67192;HTU21D;54120;53.504;49.426;2024-03-02T10:33:05;5.20;50.63
67192;HTU21D;54120;53.504;49.426;2024-03-02T10:35:33;5.32;50.68
67192;HTU21D;54120;53.504;49.426;2024-03-02T10:38:04;5.13;49.91
67192;HTU21D;54120;53.504;49.426;2024-03-02T10:40:33;5.30;50.05
67192;HTU21D;54120;53.504;49.426;2024-03-02T10:43:01;5.56;48.73
67192;HTU21D;54120;53.504;49.426;2024-03-02T10:45:29;5.71;48.45
67192;HTU21D;54120;53.504;49.426;2024-03-02T10:47:55;5.69;48.14
67192;HTU21D;54120;53.504;49.426;2024-03-02T10:50:24;5.67;47.84
67192;HTU21D;54120;53.504;49.426;2024-03-02T10:52:50;5.71;47.67
67192;HTU21D;54120;53.504;49.426;2024-03-02T10:55:17;5.65;47.83
67192;HTU21D;54120;53.504;49.426;2024-03-02T10:57:54;5.67;48.10
67192;HTU21D;54120;53.504;49.426;2024-03-02T11:00:25;5.86;47.95
67192;HTU21D;54120;53.504;49.426;2024-03-02T11:03:06;5.57;48.69
67192;HTU21D;54120;53.504;49.426;2024-03-02T11:05:36;5.35;49.59
67192;HTU21D;54120;53.504;49.426;2024-03-02T11:08:07;5.31;49.89
67192;HTU21D;54120;53.504;49.426;2024-03-02T11:10:50;5.40;50.18
67192;HTU21D;54120;53.504;49.426;2024-03-02T11:13:22;5.52;48.79
67192;HTU21D;54120;53.504;49.426;2024-03-02T11:15:54;5.63;48.24
67192;HTU21D;54120;53.504;49.426;2024-03-02T11:18:21;5.71;47.48
67192;HTU21D;54120;53.504;49.426;2024-03-02T11:20:48;5.57;47.57
67192;HTU21D;54120;53.504;49.426;2024-03-02T11:23:15;5.52;48.15
67192;HTU21D;54120;53.504;49.426;2024-03-02T11:25:41;5.72;48.02
67192;HTU21D;54120;53.504;49.426;2024-03-02T11:28:08;5.56;47.67
67192;HTU21D;54120;53.504;49.426;2024-03-02T11:33:05;5.53;47.83
67192;HTU21D;54120;53.504;49.426;2024-03-02T11:35:38;5.47;48.00
67192;HTU21D;54120;53.504;49.426;2024-03-02T11:38:09;5.68;47.54
67192;HTU21D;54120;53.504;49.426;2024-03-02T11:40:36;5.38;48.28
67192;HTU21D;54120;53.504;49.426;2024-03-02T11:43:05;5.26;48.34
67192;HTU21D;54120;53.504;49.426;2024-03-02T11:45:32;5.07;47.70
67192;HTU21D;54120;53.504;49.426;2024-03-02T11:48:00;5.12;48.39
67192;HTU21D;54120;53.504;49.426;2024-03-02T11:50:39;5.18;48.38
67192;HTU21D;54120;53.504;49.426;2024-03-02T11:53:07;5.21;48.31
67192;HTU21D;54120;53.504;49.426;2024-03-02T11:55:39;5.31;48.10
67192;HTU21D;54120;53.504;49.426;2024-03-02T11:58:07;5.17;48.31
67192;HTU21D;54120;53.504;49.426;2024-03-02T12:00:33;5.10;48.12
67192;HTU21D;54120;53.504;49.426;2024-03-02T12:03:05;4.79;49.00
67192;HTU21D;54120;53.504;49.426;2024-03-02T12:05:32;4.82;48.77
67192;HTU21D;54120;53.504;49.426;2024-03-02T12:08:00;4.87;48.18
67192;HTU21D;54120;53.504;49.426;2024-03-02T12:10:27;5.03;48.08
67192;HTU21D;54120;53.504;49.426;2024-03-02T12:13:00;4.97;48.70
67192;HTU21D;54120;53.504;49.426;2024-03-02T12:15:34;4.88;48.46
67192;HTU21D;54120;53.504;49.426;2024-03-02T12:18:02;4.94;47.99
67192;HTU21D;54120;53.504;49.426;2024-03-02T12:20:31;4.82;48.48
67192;HTU21D;54120;53.504;49.426;2024-03-02T12:22:59;4.76;49.06
67192;HTU21D;54120;53.504;49.426;2024-03-02T12:25:26;4.68;48.94
67192;HTU21D;54120;53.504;49.426;2024-03-02T12:27:58;4.76;49.46
67192;HTU21D;54120;53.504;49.426;2024-03-02T12:30:30;4.95;48.57
67192;HTU21D;54120;53.504;49.426;2024-03-02T12:32:56;5.03;48.27
67192;HTU21D;54120;53.504;49.426;2024-03-02T12:35:24;5.02;49.00
67192;HTU21D;54120;53.504;49.426;2024-03-02T12:37:52;4.96;49.10
67192;HTU21D;54120;53.504;49.426;2024-03-02T12:40:20;4.91;49.21
67192;HTU21D;54120;53.504;49.426;2024-03-02T12:42:49;4.81;49.84
67192;HTU21D;54120;53.504;49.426;2024-03-02T12:45:16;4.69;50.53
67192;HTU21D;54120;53.504;49.426;2024-03-02T12:47:50;4.73;50.59
67192;HTU21D;54120;53.504;49.426;2024-03-02T12:50:17;4.58;51.34
67192;HTU21D;54120;53.504;49.426;2024-03-02T12:52:44;4.52;51.13
67192;HTU21D;54120;53.504;49.426;2024-03-02T12:55:16;4.59;51.28
67192;HTU21D;54120;53.504;49.426;2024-03-02T12:57:43;4.51;50.98
67192;HTU21D;54120;53.504;49.426;2024-03-02T13:00:10;4.33;51.58
67192;HTU21D;54120;53.504;49.426;2024-03-02T13:02:42;4.23;51.56
67192;HTU21D;54120;53.504;49.426;2024-03-02T13:05:09;3.94;52.69
67192;HTU21D;54120;53.504;49.426;2024-03-02T13:07:39;3.83;53.07
67192;HTU21D;54120;53.504;49.426;2024-03-02T13:10:09;3.74;53.52
67192;HTU21D;54120;53.504;49.426;2024-03-02T13:12:36;3.71;53.57
67192;HTU21D;54120;53.504;49.426;2024-03-02T13:15:04;3.67;53.37
67192;HTU21D;54120;53.504;49.426;2024-03-02T13:17:31;3.64;53.88
67192;HTU21D;54120;53.504;49.426;2024-03-02T13:20:00;3.79;53.43
67192;HTU21D;54120;53.504;49.426;2024-03-02T13:22:26;4.06;53.04
67192;HTU21D;54120;53.504;49.426;2024-03-02T13:24:53;4.16;52.21
67192;HTU21D;54120;53.504;49.426;2024-03-02T13:27:20;4.02;52.86
67192;HTU21D;54120;53.504;49.426;2024-03-02T13:29:47;3.80;54.13
67192;HTU21D;54120;53.504;49.426;2024-03-02T13:32:14;3.72;54.10
67192;HTU21D;54120;53.504;49.426;2024-03-02T13:34:41;3.55;54.94
67192;HTU21D;54120;53.504;49.426;2024-03-02T13:37:08;3.43;55.26
67192;HTU21D;54120;53.504;49.426;2024-03-02T13:39:35;3.33;55.09
67192;HTU21D;54120;53.504;49.426;2024-03-02T13:42:10;3.20;54.46
67192;HTU21D;54120;53.504;49.426;2024-03-02T13:44:37;3.06;55.38
67192;HTU21D;54120;53.504;49.426;2024-03-02T13:47:04;3.02;54.92
67192;HTU21D;54120;53.504;49.426;2024-03-02T13:49:31;2.93;55.76
67192;HTU21D;54120;53.504;49.426;2024-03-02T13:52:08;2.83;56.68
67192;HTU21D;54120;53.504;49.426;2024-03-02T13:54:44;2.82;56.77
67192;HTU21D;54120;53.504;49.426;2024-03-02T13:57:11;2.70;56.63
67192;HTU21D;54120;53.504;49.426;2024-03-02T13:59:38;2.55;58.12
67192;HTU21D;54120;53.504;49.426;2024-03-02T14:02:05;2.41;56.61
67192;HTU21D;54120;53.504;49.426;2024-03-02T14:04:32;2.20;58.39
67192;HTU21D;54120;53.504;49.426;2024-03-02T14:06:59;2.15;59.51
67192;HTU21D;54120;53.504;49.426;2024-03-02T14:09:26;2.07;59.21
67192;HTU21D;54120;53.504;49.426;2024-03-02T14:11:54;1.94;60.40
67192;HTU21D;54120;53.504;49.426;2024-03-02T14:14:20;1.73;61.02
67192;HTU21D;54120;53.504;49.426;2024-03-02T14:16:47;1.53;61.32
67192;HTU21D;54120;53.504;49.426;2024-03-02T14:19:13;1.34;61.49
67192;HTU21D;54120;53.504;49.426;2024-03-02T14:21:40;1.25;63.07
67192;HTU21D;54120;53.504;49.426;2024-03-02T14:24:06;1.18;62.88
67192;HTU21D;54120;53.504;49.426;2024-03-02T14:26:33;1.22;63.79
67192;HTU21D;54120;53.504;49.426;2024-03-02T14:29:00;1.08;65.37
67192;HTU21D;54120;53.504;49.426;2024-03-02T14:31:32;1.06;62.86
67192;HTU21D;54120;53.504;49.426;2024-03-02T14:33:59;0.93;65.38
67192;HTU21D;54120;53.504;49.426;2024-03-02T14:36:26;0.57;65.72
67192;HTU21D;54120;53.504;49.426;2024-03-02T14:38:56;0.58;65.05
67192;HTU21D;54120;53.504;49.426;2024-03-02T14:41:22;0.25;65.48
67192;HTU21D;54120;53.504;49.426;2024-03-02T14:43:52;0.52;66.52
67192;HTU21D;54120;53.504;49.426;2024-03-02T14:46:18;0.49;64.76
67192;HTU21D;54120;53.504;49.426;2024-03-02T14:48:48;0.17;65.40
67192;HTU21D;54120;53.504;49.426;2024-03-02T14:51:14;-0.26;66.88
67192;HTU21D;54120;53.504;49.426;2024-03-02T14:53:41;-0.23;67.99
67192;HTU21D;54120;53.504;49.426;2024-03-02T14:56:08;-0.41;68.18
67192;HTU21D;54120;53.504;49.426;2024-03-02T14:58:34;-0.86;69.33
67192;HTU21D;54120;53.504;49.426;2024-03-02T15:01:03;-1.18;69.53
67192;HTU21D;54120;53.504;49.426;2024-03-02T15:03:32;-1.38;68.25
67192;HTU21D;54120;53.504;49.426;2024-03-02T15:05:58;-1.42;68.52
67192;HTU21D;54120;53.504;49.426;2024-03-02T15:08:25;-1.41;68.86
67192;HTU21D;54120;53.504;49.426;2024-03-02T15:10:52;-1.41;70.13
67192;HTU21D;54120;53.504;49.426;2024-03-02T15:13:18;-1.38;70.26
67192;HTU21D;54120;53.504;49.426;2024-03-02T15:15:45;-1.36;69.70
67192;HTU21D;54120;53.504;49.426;2024-03-02T15:18:12;-1.31;69.18
67192;HTU21D;54120;53.504;49.426;2024-03-02T15:20:38;-1.57;69.70